Disclaimer

Please do not use the information listed here in-flight or in-navigation, as they are not provided to us by the airports but are provided by volunteers, so they might be outdated.

Search


Regions


Airport information page

Radio informations:
LE LUC TWR - 123.0 MHz
Ground (GND) - 121.85 MHz
Automatic Terminal Information Service (ATIS) - 128.65 MHz
LE LUC APP - 122.2 MHz

Airport informations:
Latitude: 43° 23' 04.82" N
Longitude: 006° 23' 13.70" E
Elevation: 265 feet - 81 meters
Operating hours: Remarks
Operating agency: Military
Timezone: UTC+1(+2DT) - Last Sunday in March to last Sunday in October
Fuel: Jet A1+, Jet A1 with icing inhibitor.

100/130 octane gasoline, leaded, MIL-L-5572F (GREEN)

Runway information:
09/27 - 2625 x 98 feet< - >800 x 30 meters
13/31 - 4593 x 98 feet< - >1400 x 30 meters

Recent METARs:
LFMC 160630Z 00000KT 2600 VCFG BKN002 08/08 Q1022
LFMC 160700Z 00000KT 2600 VCFG BKN002 08/08 Q1023
LFMC 160730Z VRB02KT 1200 0800E PRFG BR OVC002 09/09 Q1023

Airport on the map: